sensor_id;sensor_type;location;lat;lon;timestamp;P1;durP1;ratioP1;P2;durP2;ratioP2
17384;SDS011;8810;48.680;8.894;2023-05-03T00:00:49;7.00;;;4.40;;
17384;SDS011;8810;48.680;8.894;2023-05-03T00:03:16;12.87;;;4.70;;
17384;SDS011;8810;48.680;8.894;2023-05-03T00:05:46;9.40;;;5.30;;
17384;SDS011;8810;48.680;8.894;2023-05-03T00:08:15;12.33;;;5.30;;
17384;SDS011;8810;48.680;8.894;2023-05-03T00:10:42;10.90;;;5.70;;
17384;SDS011;8810;48.680;8.894;2023-05-03T00:13:09;9.63;;;5.77;;
17384;SDS011;8810;48.680;8.894;2023-05-03T00:15:36;8.37;;;5.40;;
17384;SDS011;8810;48.680;8.894;2023-05-03T00:18:02;10.53;;;5.53;;
17384;SDS011;8810;48.680;8.894;2023-05-03T00:20:30;10.83;;;4.90;;
17384;SDS011;8810;48.680;8.894;2023-05-03T00:22:57;7.30;;;4.57;;
17384;SDS011;8810;48.680;8.894;2023-05-03T00:25:25;10.17;;;5.37;;
17384;SDS011;8810;48.680;8.894;2023-05-03T00:27:52;8.90;;;4.70;;
17384;SDS011;8810;48.680;8.894;2023-05-03T00:30:19;7.10;;;4.43;;
17384;SDS011;8810;48.680;8.894;2023-05-03T00:32:46;7.47;;;4.63;;
17384;SDS011;8810;48.680;8.894;2023-05-03T00:35:13;12.87;;;5.03;;
17384;SDS011;8810;48.680;8.894;2023-05-03T00:37:39;8.97;;;5.40;;
17384;SDS011;8810;48.680;8.894;2023-05-03T00:40:07;8.87;;;4.87;;
17384;SDS011;8810;48.680;8.894;2023-05-03T00:42:35;8.63;;;5.03;;
17384;SDS011;8810;48.680;8.894;2023-05-03T00:45:03;9.60;;;5.27;;
17384;SDS011;8810;48.680;8.894;2023-05-03T00:47:30;7.50;;;5.10;;
17384;SDS011;8810;48.680;8.894;2023-05-03T00:49:58;9.13;;;4.73;;
17384;SDS011;8810;48.680;8.894;2023-05-03T00:52:25;9.23;;;4.70;;
17384;SDS011;8810;48.680;8.894;2023-05-03T00:54:52;9.00;;;4.93;;
17384;SDS011;8810;48.680;8.894;2023-05-03T00:57:20;8.27;;;5.13;;
17384;SDS011;8810;48.680;8.894;2023-05-03T00:59:48;8.97;;;5.17;;
17384;SDS011;8810;48.680;8.894;2023-05-03T01:02:17;9.47;;;5.13;;
17384;SDS011;8810;48.680;8.894;2023-05-03T01:04:45;7.77;;;5.17;;
17384;SDS011;8810;48.680;8.894;2023-05-03T01:07:14;8.67;;;4.90;;
17384;SDS011;8810;48.680;8.894;2023-05-03T01:09:48;9.03;;;5.37;;
17384;SDS011;8810;48.680;8.894;2023-05-03T01:12:29;13.13;;;6.03;;
17384;SDS011;8810;48.680;8.894;2023-05-03T01:15:09;8.13;;;4.90;;
17384;SDS011;8810;48.680;8.894;2023-05-03T01:17:44;8.40;;;4.77;;
17384;SDS011;8810;48.680;8.894;2023-05-03T01:20:16;8.07;;;4.67;;
17384;SDS011;8810;48.680;8.894;2023-05-03T01:22:49;9.37;;;5.20;;
17384;SDS011;8810;48.680;8.894;2023-05-03T01:25:30;11.83;;;5.57;;
17384;SDS011;8810;48.680;8.894;2023-05-03T01:27:57;9.03;;;5.37;;
17384;SDS011;8810;48.680;8.894;2023-05-03T01:30:26;8.37;;;4.63;;
17384;SDS011;8810;48.680;8.894;2023-05-03T01:32:55;8.03;;;5.17;;
17384;SDS011;8810;48.680;8.894;2023-05-03T01:35:29;10.47;;;4.90;;
17384;SDS011;8810;48.680;8.894;2023-05-03T01:38:02;8.53;;;4.93;;
17384;SDS011;8810;48.680;8.894;2023-05-03T01:40:31;9.43;;;5.33;;
17384;SDS011;8810;48.680;8.894;2023-05-03T01:43:01;8.93;;;4.90;;
17384;SDS011;8810;48.680;8.894;2023-05-03T01:45:29;12.30;;;5.77;;
17384;SDS011;8810;48.680;8.894;2023-05-03T01:47:56;6.73;;;4.47;;
17384;SDS011;8810;48.680;8.894;2023-05-03T01:50:22;6.60;;;4.37;;
17384;SDS011;8810;48.680;8.894;2023-05-03T01:52:49;7.93;;;4.60;;
17384;SDS011;8810;48.680;8.894;2023-05-03T01:55:17;5.57;;;3.90;;
17384;SDS011;8810;48.680;8.894;2023-05-03T01:57:45;8.47;;;4.50;;
17384;SDS011;8810;48.680;8.894;2023-05-03T02:00:12;7.30;;;4.30;;
17384;SDS011;8810;48.680;8.894;2023-05-03T02:02:40;8.80;;;4.63;;
17384;SDS011;8810;48.680;8.894;2023-05-03T02:05:07;9.10;;;5.00;;
17384;SDS011;8810;48.680;8.894;2023-05-03T02:07:35;9.87;;;4.43;;
17384;SDS011;8810;48.680;8.894;2023-05-03T02:10:03;7.93;;;4.57;;
17384;SDS011;8810;48.680;8.894;2023-05-03T02:12:30;9.17;;;4.70;;
17384;SDS011;8810;48.680;8.894;2023-05-03T02:14:58;10.63;;;5.23;;
17384;SDS011;8810;48.680;8.894;2023-05-03T02:17:25;7.97;;;4.77;;
17384;SDS011;8810;48.680;8.894;2023-05-03T02:19:52;10.80;;;6.03;;
17384;SDS011;8810;48.680;8.894;2023-05-03T02:22:19;12.27;;;6.83;;
17384;SDS011;8810;48.680;8.894;2023-05-03T02:24:47;12.17;;;6.47;;
17384;SDS011;8810;48.680;8.894;2023-05-03T02:27:14;13.57;;;7.37;;
17384;SDS011;8810;48.680;8.894;2023-05-03T02:29:41;11.27;;;6.63;;
17384;SDS011;8810;48.680;8.894;2023-05-03T02:32:09;14.47;;;8.30;;
17384;SDS011;8810;48.680;8.894;2023-05-03T02:34:37;15.70;;;8.27;;
17384;SDS011;8810;48.680;8.894;2023-05-03T02:37:05;16.37;;;9.00;;
17384;SDS011;8810;48.680;8.894;2023-05-03T02:39:32;17.43;;;10.10;;
17384;SDS011;8810;48.680;8.894;2023-05-03T02:41:59;18.67;;;9.47;;
17384;SDS011;8810;48.680;8.894;2023-05-03T02:44:26;16.20;;;10.13;;
17384;SDS011;8810;48.680;8.894;2023-05-03T02:46:53;16.43;;;9.13;;
17384;SDS011;8810;48.680;8.894;2023-05-03T02:49:21;15.47;;;9.10;;
17384;SDS011;8810;48.680;8.894;2023-05-03T02:51:48;17.07;;;9.87;;
17384;SDS011;8810;48.680;8.894;2023-05-03T02:54:17;14.30;;;8.70;;
17384;SDS011;8810;48.680;8.894;2023-05-03T02:56:43;14.67;;;8.60;;
17384;SDS011;8810;48.680;8.894;2023-05-03T02:59:10;13.90;;;8.10;;
17384;SDS011;8810;48.680;8.894;2023-05-03T03:01:37;12.77;;;7.10;;
17384;SDS011;8810;48.680;8.894;2023-05-03T03:04:04;15.50;;;6.80;;
17384;SDS011;8810;48.680;8.894;2023-05-03T03:06:32;10.20;;;6.13;;
17384;SDS011;8810;48.680;8.894;2023-05-03T03:08:59;8.93;;;5.43;;
17384;SDS011;8810;48.680;8.894;2023-05-03T03:11:26;8.33;;;5.37;;
17384;SDS011;8810;48.680;8.894;2023-05-03T03:13:53;9.10;;;5.27;;
17384;SDS011;8810;48.680;8.894;2023-05-03T03:16:19;8.70;;;5.33;;
17384;SDS011;8810;48.680;8.894;2023-05-03T03:18:46;9.83;;;5.17;;
17384;SDS011;8810;48.680;8.894;2023-05-03T03:21:13;9.47;;;5.17;;
17384;SDS011;8810;48.680;8.894;2023-05-03T03:23:41;9.67;;;4.83;;
17384;SDS011;8810;48.680;8.894;2023-05-03T03:26:08;8.00;;;4.83;;
17384;SDS011;8810;48.680;8.894;2023-05-03T03:28:35;9.03;;;4.70;;
17384;SDS011;8810;48.680;8.894;2023-05-03T03:31:02;7.70;;;4.53;;
17384;SDS011;8810;48.680;8.894;2023-05-03T03:33:29;7.53;;;4.47;;
17384;SDS011;8810;48.680;8.894;2023-05-03T03:35:55;7.70;;;4.53;;
17384;SDS011;8810;48.680;8.894;2023-05-03T03:38:22;6.60;;;4.50;;
17384;SDS011;8810;48.680;8.894;2023-05-03T03:40:50;7.43;;;4.53;;
17384;SDS011;8810;48.680;8.894;2023-05-03T03:43:18;8.80;;;4.67;;
17384;SDS011;8810;48.680;8.894;2023-05-03T03:45:45;6.87;;;4.50;;
17384;SDS011;8810;48.680;8.894;2023-05-03T03:48:12;8.07;;;4.20;;
17384;SDS011;8810;48.680;8.894;2023-05-03T03:50:39;7.10;;;4.30;;
17384;SDS011;8810;48.680;8.894;2023-05-03T03:53:06;7.87;;;4.17;;
17384;SDS011;8810;48.680;8.894;2023-05-03T03:55:35;7.63;;;4.30;;
17384;SDS011;8810;48.680;8.894;2023-05-03T03:58:03;7.60;;;4.23;;
17384;SDS011;8810;48.680;8.894;2023-05-03T04:00:30;7.23;;;4.17;;
17384;SDS011;8810;48.680;8.894;2023-05-03T04:02:58;8.13;;;4.73;;
17384;SDS011;8810;48.680;8.894;2023-05-03T04:05:25;6.50;;;3.90;;
17384;SDS011;8810;48.680;8.894;2023-05-03T04:07:52;7.93;;;4.20;;
17384;SDS011;8810;48.680;8.894;2023-05-03T04:10:19;6.90;;;3.93;;
17384;SDS011;8810;48.680;8.894;2023-05-03T04:12:46;6.07;;;4.57;;
17384;SDS011;8810;48.680;8.894;2023-05-03T04:15:14;9.20;;;4.23;;
17384;SDS011;8810;48.680;8.894;2023-05-03T04:17:41;8.40;;;4.87;;
17384;SDS011;8810;48.680;8.894;2023-05-03T04:20:08;7.50;;;4.47;;
17384;SDS011;8810;48.680;8.894;2023-05-03T04:22:37;9.23;;;4.87;;
17384;SDS011;8810;48.680;8.894;2023-05-03T04:25:05;8.87;;;4.60;;
17384;SDS011;8810;48.680;8.894;2023-05-03T04:27:33;7.00;;;4.23;;
17384;SDS011;8810;48.680;8.894;2023-05-03T04:30:02;8.63;;;4.70;;
17384;SDS011;8810;48.680;8.894;2023-05-03T04:32:31;15.40;;;4.90;;
17384;SDS011;8810;48.680;8.894;2023-05-03T04:35:01;8.90;;;4.97;;
17384;SDS011;8810;48.680;8.894;2023-05-03T04:37:28;9.57;;;4.30;;
17384;SDS011;8810;48.680;8.894;2023-05-03T04:39:55;9.77;;;4.53;;
17384;SDS011;8810;48.680;8.894;2023-05-03T04:42:22;9.67;;;5.13;;
17384;SDS011;8810;48.680;8.894;2023-05-03T04:44:49;7.90;;;4.70;;
17384;SDS011;8810;48.680;8.894;2023-05-03T04:47:16;10.10;;;4.70;;
17384;SDS011;8810;48.680;8.894;2023-05-03T04:49:44;10.33;;;5.00;;
17384;SDS011;8810;48.680;8.894;2023-05-03T04:52:12;8.67;;;4.83;;
17384;SDS011;8810;48.680;8.894;2023-05-03T04:54:39;10.50;;;5.23;;
17384;SDS011;8810;48.680;8.894;2023-05-03T04:57:05;7.37;;;4.83;;
17384;SDS011;8810;48.680;8.894;2023-05-03T04:59:34;10.40;;;4.87;;
17384;SDS011;8810;48.680;8.894;2023-05-03T05:02:01;9.03;;;4.87;;
17384;SDS011;8810;48.680;8.894;2023-05-03T05:04:28;10.60;;;5.20;;
17384;SDS011;8810;48.680;8.894;2023-05-03T05:06:56;11.27;;;5.73;;
17384;SDS011;8810;48.680;8.894;2023-05-03T05:09:24;10.30;;;6.07;;
17384;SDS011;8810;48.680;8.894;2023-05-03T05:11:52;8.33;;;5.40;;
17384;SDS011;8810;48.680;8.894;2023-05-03T05:14:19;12.37;;;6.47;;
17384;SDS011;8810;48.680;8.894;2023-05-03T05:16:46;10.77;;;6.60;;
17384;SDS011;8810;48.680;8.894;2023-05-03T05:19:12;10.53;;;6.40;;
17384;SDS011;8810;48.680;8.894;2023-05-03T05:21:40;13.53;;;7.47;;
17384;SDS011;8810;48.680;8.894;2023-05-03T05:24:08;13.13;;;6.50;;
17384;SDS011;8810;48.680;8.894;2023-05-03T05:26:35;14.97;;;7.10;;
17384;SDS011;8810;48.680;8.894;2023-05-03T05:31:29;13.50;;;7.27;;
17384;SDS011;8810;48.680;8.894;2023-05-03T05:33:56;11.67;;;7.13;;
17384;SDS011;8810;48.680;8.894;2023-05-03T05:36:23;13.10;;;8.07;;
17384;SDS011;8810;48.680;8.894;2023-05-03T05:38:50;14.43;;;6.90;;
17384;SDS011;8810;48.680;8.894;2023-05-03T05:41:18;16.93;;;7.37;;
17384;SDS011;8810;48.680;8.894;2023-05-03T05:43:45;14.30;;;8.20;;
17384;SDS011;8810;48.680;8.894;2023-05-03T05:46:12;15.00;;;7.30;;
17384;SDS011;8810;48.680;8.894;2023-05-03T05:48:39;13.70;;;7.83;;
17384;SDS011;8810;48.680;8.894;2023-05-03T05:51:07;14.07;;;7.37;;
17384;SDS011;8810;48.680;8.894;2023-05-03T05:53:34;18.00;;;7.53;;
17384;SDS011;8810;48.680;8.894;2023-05-03T05:56:01;16.67;;;8.07;;
17384;SDS011;8810;48.680;8.894;2023-05-03T05:58:29;11.47;;;7.70;;
17384;SDS011;8810;48.680;8.894;2023-05-03T06:00:56;13.60;;;7.30;;
17384;SDS011;8810;48.680;8.894;2023-05-03T06:03:25;14.37;;;7.50;;
17384;SDS011;8810;48.680;8.894;2023-05-03T06:05:52;12.10;;;8.30;;
17384;SDS011;8810;48.680;8.894;2023-05-03T06:08:18;16.70;;;9.13;;
17384;SDS011;8810;48.680;8.894;2023-05-03T06:10:45;12.37;;;7.73;;
17384;SDS011;8810;48.680;8.894;2023-05-03T06:13:12;15.90;;;8.00;;
17384;SDS011;8810;48.680;8.894;2023-05-03T06:15:40;13.93;;;8.60;;
17384;SDS011;8810;48.680;8.894;2023-05-03T06:18:07;12.63;;;7.63;;
17384;SDS011;8810;48.680;8.894;2023-05-03T06:20:34;13.63;;;8.17;;
17384;SDS011;8810;48.680;8.894;2023-05-03T06:23:01;17.43;;;8.93;;
17384;SDS011;8810;48.680;8.894;2023-05-03T06:25:28;14.17;;;8.37;;
17384;SDS011;8810;48.680;8.894;2023-05-03T06:27:55;15.97;;;8.87;;
17384;SDS011;8810;48.680;8.894;2023-05-03T06:30:22;16.13;;;9.13;;
17384;SDS011;8810;48.680;8.894;2023-05-03T06:32:51;14.67;;;8.40;;
17384;SDS011;8810;48.680;8.894;2023-05-03T06:35:17;14.93;;;9.47;;
17384;SDS011;8810;48.680;8.894;2023-05-03T06:37:45;17.47;;;8.73;;
17384;SDS011;8810;48.680;8.894;2023-05-03T06:40:13;19.13;;;9.10;;
17384;SDS011;8810;48.680;8.894;2023-05-03T06:42:40;17.63;;;9.63;;
17384;SDS011;8810;48.680;8.894;2023-05-03T06:45:07;13.47;;;8.97;;
17384;SDS011;8810;48.680;8.894;2023-05-03T06:47:35;15.97;;;8.93;;
17384;SDS011;8810;48.680;8.894;2023-05-03T06:50:05;20.30;;;9.87;;
17384;SDS011;8810;48.680;8.894;2023-05-03T06:52:36;18.83;;;10.03;;
17384;SDS011;8810;48.680;8.894;2023-05-03T06:55:03;15.67;;;8.60;;
17384;SDS011;8810;48.680;8.894;2023-05-03T06:57:30;16.47;;;9.57;;
17384;SDS011;8810;48.680;8.894;2023-05-03T06:59:57;17.10;;;9.47;;
17384;SDS011;8810;48.680;8.894;2023-05-03T07:02:24;18.90;;;10.13;;
17384;SDS011;8810;48.680;8.894;2023-05-03T07:04:51;18.37;;;10.13;;
17384;SDS011;8810;48.680;8.894;2023-05-03T07:07:19;13.97;;;9.30;;
17384;SDS011;8810;48.680;8.894;2023-05-03T07:09:46;15.67;;;9.73;;
17384;SDS011;8810;48.680;8.894;2023-05-03T07:12:13;20.23;;;9.37;;
17384;SDS011;8810;48.680;8.894;2023-05-03T07:14:40;15.80;;;9.90;;
17384;SDS011;8810;48.680;8.894;2023-05-03T07:17:07;14.90;;;9.63;;
17384;SDS011;8810;48.680;8.894;2023-05-03T07:19:34;15.73;;;9.03;;
17384;SDS011;8810;48.680;8.894;2023-05-03T07:22:01;22.30;;;12.40;;
17384;SDS011;8810;48.680;8.894;2023-05-03T07:24:30;20.73;;;13.00;;
17384;SDS011;8810;48.680;8.894;2023-05-03T07:26:56;18.33;;;11.27;;
17384;SDS011;8810;48.680;8.894;2023-05-03T07:29:24;14.33;;;9.07;;
17384;SDS011;8810;48.680;8.894;2023-05-03T07:31:51;15.63;;;9.03;;
17384;SDS011;8810;48.680;8.894;2023-05-03T07:34:18;15.57;;;9.03;;
17384;SDS011;8810;48.680;8.894;2023-05-03T07:36:45;14.47;;;9.27;;
17384;SDS011;8810;48.680;8.894;2023-05-03T07:39:12;16.77;;;10.13;;
17384;SDS011;8810;48.680;8.894;2023-05-03T07:41:40;15.30;;;9.60;;
17384;SDS011;8810;48.680;8.894;2023-05-03T07:44:07;14.50;;;9.50;;
17384;SDS011;8810;48.680;8.894;2023-05-03T07:46:34;19.03;;;10.43;;
17384;SDS011;8810;48.680;8.894;2023-05-03T07:49:01;15.90;;;9.20;;
17384;SDS011;8810;48.680;8.894;2023-05-03T07:51:28;13.70;;;9.33;;
17384;SDS011;8810;48.680;8.894;2023-05-03T07:53:56;14.10;;;8.57;;
17384;SDS011;8810;48.680;8.894;2023-05-03T07:56:22;16.30;;;10.07;;
17384;SDS011;8810;48.680;8.894;2023-05-03T07:58:51;14.50;;;9.00;;
17384;SDS011;8810;48.680;8.894;2023-05-03T08:01:18;19.03;;;9.50;;
17384;SDS011;8810;48.680;8.894;2023-05-03T08:03:46;13.67;;;9.63;;
17384;SDS011;8810;48.680;8.894;2023-05-03T08:06:14;16.40;;;9.70;;
17384;SDS011;8810;48.680;8.894;2023-05-03T08:08:41;13.60;;;9.70;;
17384;SDS011;8810;48.680;8.894;2023-05-03T08:11:08;14.57;;;10.33;;
17384;SDS011;8810;48.680;8.894;2023-05-03T08:13:35;15.17;;;9.13;;
17384;SDS011;8810;48.680;8.894;2023-05-03T08:16:04;14.73;;;9.23;;
17384;SDS011;8810;48.680;8.894;2023-05-03T08:18:31;13.33;;;9.23;;
17384;SDS011;8810;48.680;8.894;2023-05-03T08:20:58;13.40;;;8.80;;
17384;SDS011;8810;48.680;8.894;2023-05-03T08:23:25;15.97;;;9.57;;
17384;SDS011;8810;48.680;8.894;2023-05-03T08:25:52;12.17;;;8.87;;
17384;SDS011;8810;48.680;8.894;2023-05-03T08:28:18;13.23;;;8.70;;
17384;SDS011;8810;48.680;8.894;2023-05-03T08:30:45;11.80;;;8.37;;
17384;SDS011;8810;48.680;8.894;2023-05-03T08:33:14;10.80;;;8.47;;
17384;SDS011;8810;48.680;8.894;2023-05-03T08:35:40;14.23;;;8.90;;
17384;SDS011;8810;48.680;8.894;2023-05-03T08:38:07;11.63;;;8.37;;
17384;SDS011;8810;48.680;8.894;2023-05-03T08:40:34;10.10;;;7.33;;
17384;SDS011;8810;48.680;8.894;2023-05-03T08:43:06;10.70;;;7.73;;
17384;SDS011;8810;48.680;8.894;2023-05-03T08:45:34;9.37;;;7.27;;
17384;SDS011;8810;48.680;8.894;2023-05-03T08:48:01;12.63;;;7.73;;
17384;SDS011;8810;48.680;8.894;2023-05-03T08:50:30;11.53;;;7.63;;
17384;SDS011;8810;48.680;8.894;2023-05-03T08:53:01;12.47;;;7.33;;
17384;SDS011;8810;48.680;8.894;2023-05-03T08:55:29;12.77;;;7.60;;
17384;SDS011;8810;48.680;8.894;2023-05-03T08:57:56;9.70;;;7.47;;
17384;SDS011;8810;48.680;8.894;2023-05-03T09:00:26;9.93;;;7.43;;
17384;SDS011;8810;48.680;8.894;2023-05-03T09:02:54;10.00;;;7.45;;
17384;SDS011;8810;48.680;8.894;2023-05-03T09:05:32;9.98;;;7.38;;
17384;SDS011;8810;48.680;8.894;2023-05-03T09:08:03;12.20;;;7.30;;
17384;SDS011;8810;48.680;8.894;2023-05-03T09:10:31;12.50;;;6.63;;
17384;SDS011;8810;48.680;8.894;2023-05-03T09:12:59;10.43;;;6.82;;
17384;SDS011;8810;48.680;8.894;2023-05-03T09:15:27;9.15;;;6.78;;
17384;SDS011;8810;48.680;8.894;2023-05-03T09:18:05;8.68;;;6.88;;
17384;SDS011;8810;48.680;8.894;2023-05-03T09:20:34;8.52;;;6.85;;
17384;SDS011;8810;48.680;8.894;2023-05-03T09:23:02;11.00;;;6.93;;
17384;SDS011;8810;48.680;8.894;2023-05-03T09:25:38;10.60;;;7.03;;
17384;SDS011;8810;48.680;8.894;2023-05-03T09:28:06;11.50;;;7.40;;
17384;SDS011;8810;48.680;8.894;2023-05-03T09:30:34;8.65;;;6.45;;
17384;SDS011;8810;48.680;8.894;2023-05-03T09:33:01;11.18;;;7.05;;
17384;SDS011;8810;48.680;8.894;2023-05-03T09:35:28;10.45;;;6.88;;
17384;SDS011;8810;48.680;8.894;2023-05-03T09:37:57;8.15;;;6.28;;
17384;SDS011;8810;48.680;8.894;2023-05-03T09:40:24;11.02;;;6.47;;
17384;SDS011;8810;48.680;8.894;2023-05-03T09:43:04;15.70;;;6.85;;
17384;SDS011;8810;48.680;8.894;2023-05-03T09:45:32;29.33;;;10.50;;
17384;SDS011;8810;48.680;8.894;2023-05-03T09:47:59;16.05;;;6.43;;
17384;SDS011;8810;48.680;8.894;2023-05-03T09:50:29;9.45;;;6.18;;
17384;SDS011;8810;48.680;8.894;2023-05-03T09:52:59;9.75;;;5.97;;
17384;SDS011;8810;48.680;8.894;2023-05-03T09:55:30;12.05;;;6.60;;
17384;SDS011;8810;48.680;8.894;2023-05-03T09:57:59;8.80;;;6.05;;
17384;SDS011;8810;48.680;8.894;2023-05-03T10:00:31;11.07;;;6.10;;
17384;SDS011;8810;48.680;8.894;2023-05-03T10:03:00;15.75;;;8.07;;
17384;SDS011;8810;48.680;8.894;2023-05-03T10:05:30;8.32;;;5.85;;
17384;SDS011;8810;48.680;8.894;2023-05-03T10:07:59;8.57;;;5.43;;
17384;SDS011;8810;48.680;8.894;2023-05-03T10:10:29;8.32;;;6.13;;
17384;SDS011;8810;48.680;8.894;2023-05-03T10:12:59;7.68;;;5.57;;
17384;SDS011;8810;48.680;8.894;2023-05-03T10:15:27;7.95;;;5.18;;
17384;SDS011;8810;48.680;8.894;2023-05-03T10:17:56;8.32;;;5.63;;
17384;SDS011;8810;48.680;8.894;2023-05-03T10:20:28;8.43;;;5.63;;
17384;SDS011;8810;48.680;8.894;2023-05-03T10:23:08;7.82;;;5.60;;
17384;SDS011;8810;48.680;8.894;2023-05-03T10:25:36;8.88;;;5.47;;
17384;SDS011;8810;48.680;8.894;2023-05-03T10:28:04;9.40;;;5.63;;
17384;SDS011;8810;48.680;8.894;2023-05-03T10:30:33;8.95;;;5.60;;
17384;SDS011;8810;48.680;8.894;2023-05-03T10:35:56;8.98;;;5.20;;
17384;SDS011;8810;48.680;8.894;2023-05-03T10:38:26;6.50;;;5.40;;
17384;SDS011;8810;48.680;8.894;2023-05-03T10:40:54;8.40;;;4.70;;
17384;SDS011;8810;48.680;8.894;2023-05-03T10:43:40;7.00;;;5.18;;
17384;SDS011;8810;48.680;8.894;2023-05-03T10:46:08;8.23;;;5.70;;
17384;SDS011;8810;48.680;8.894;2023-05-03T10:51:45;9.02;;;5.60;;
17384;SDS011;8810;48.680;8.894;2023-05-03T10:54:14;11.35;;;5.43;;
17384;SDS011;8810;48.680;8.894;2023-05-03T10:56:54;10.13;;;5.75;;
17384;SDS011;8810;48.680;8.894;2023-05-03T10:59:21;8.13;;;5.63;;
17384;SDS011;8810;48.680;8.894;2023-05-03T11:01:49;7.63;;;5.70;;
17384;SDS011;8810;48.680;8.894;2023-05-03T11:04:22;7.55;;;5.18;;
17384;SDS011;8810;48.680;8.894;2023-05-03T11:07:18;7.22;;;4.88;;
17384;SDS011;8810;48.680;8.894;2023-05-03T11:09:46;8.75;;;5.30;;
17384;SDS011;8810;48.680;8.894;2023-05-03T11:12:13;7.25;;;4.95;;
17384;SDS011;8810;48.680;8.894;2023-05-03T11:14:41;8.55;;;4.70;;
17384;SDS011;8810;48.680;8.894;2023-05-03T11:17:08;6.80;;;4.97;;
17384;SDS011;8810;48.680;8.894;2023-05-03T11:19:35;6.43;;;4.82;;
17384;SDS011;8810;48.680;8.894;2023-05-03T11:22:03;7.43;;;5.03;;
17384;SDS011;8810;48.680;8.894;2023-05-03T11:24:30;8.20;;;4.90;;
17384;SDS011;8810;48.680;8.894;2023-05-03T11:26:58;10.30;;;5.32;;
17384;SDS011;8810;48.680;8.894;2023-05-03T11:31:53;5.82;;;4.53;;
17384;SDS011;8810;48.680;8.894;2023-05-03T11:34:20;6.50;;;4.50;;
17384;SDS011;8810;48.680;8.894;2023-05-03T11:36:47;6.38;;;4.10;;
17384;SDS011;8810;48.680;8.894;2023-05-03T11:39:15;5.47;;;4.03;;
17384;SDS011;8810;48.680;8.894;2023-05-03T11:41:42;12.57;;;3.78;;
17384;SDS011;8810;48.680;8.894;2023-05-03T11:44:10;6.43;;;4.10;;
17384;SDS011;8810;48.680;8.894;2023-05-03T11:46:37;5.50;;;4.03;;
17384;SDS011;8810;48.680;8.894;2023-05-03T11:49:04;6.88;;;4.03;;
17384;SDS011;8810;48.680;8.894;2023-05-03T11:51:31;11.95;;;4.60;;
17384;SDS011;8810;48.680;8.894;2023-05-03T11:53:59;6.20;;;3.70;;
17384;SDS011;8810;48.680;8.894;2023-05-03T11:56:27;3.85;;;3.42;;
17384;SDS011;8810;48.680;8.894;2023-05-03T11:58:56;4.55;;;3.75;;
17384;SDS011;8810;48.680;8.894;2023-05-03T12:01:26;7.35;;;3.50;;
17384;SDS011;8810;48.680;8.894;2023-05-03T12:03:56;6.07;;;4.05;;
17384;SDS011;8810;48.680;8.894;2023-05-03T12:06:25;11.07;;;3.95;;
17384;SDS011;8810;48.680;8.894;2023-05-03T12:08:54;6.90;;;3.67;;
17384;SDS011;8810;48.680;8.894;2023-05-03T12:11:21;8.00;;;4.20;;
17384;SDS011;8810;48.680;8.894;2023-05-03T12:13:54;7.72;;;4.05;;
17384;SDS011;8810;48.680;8.894;2023-05-03T12:16:23;8.07;;;3.80;;
17384;SDS011;8810;48.680;8.894;2023-05-03T12:18:53;6.78;;;3.42;;
17384;SDS011;8810;48.680;8.894;2023-05-03T12:21:22;5.82;;;3.60;;
17384;SDS011;8810;48.680;8.894;2023-05-03T12:23:50;4.95;;;3.60;;
17384;SDS011;8810;48.680;8.894;2023-05-03T12:26:17;7.68;;;3.60;;
17384;SDS011;8810;48.680;8.894;2023-05-03T12:28:45;5.43;;;3.00;;
17384;SDS011;8810;48.680;8.894;2023-05-03T12:31:13;6.63;;;3.58;;
17384;SDS011;8810;48.680;8.894;2023-05-03T12:33:42;7.00;;;3.70;;
17384;SDS011;8810;48.680;8.894;2023-05-03T12:36:09;4.03;;;3.47;;
